map of NHD home
NHD - Airport
Location
City:  Dubai, Dubai, United Arab Emirates
Name:Al Minhad AB
ICAO:OMDM
IATA:NHD

Details
Type:Airport (Aerodrome, Airfield)
Use:Military
Latitude:2501'37"N (25.026819)
Longitude:5521'58"E (55.366244)
Datum:WGS 1984
Elevation:165 ft (50 m)
Variation:2.09E (WMM2015v2 magnetic declination)
0.05 annual change
Runways:1
Longest:12970 × 148 ft (3953 × 45 m), paved

Time
Time Zone:UTC+4
Local Time:

Weather
METAR:OMDM 041400Z 28008KT CAVOK 21/11 Q1018 A3008

Related Locations
Nearby:
Farthest:GMR: 11785 mi / 18967 km
Mangareva [Totegegie], Gambier Islands, PF

Find:

   beyond  
but within

Other Information
Maps:
NOTAMs:
Links:
Sources:

  
  • flag of United Arab Emirates
  • flag of Dubai
  

Sectional Chart

Flight Planning
at skyvector.com

Satellite Image

Google Maps Satellite view

 

Copyright © 2004-2019 Karl L. Swartz. All rights reserved.
The Great Circle Mapper name and logo are trademarks of the Great Circle Mapper.
All other trademarks mentioned herein belong to their respective owners.
Please see credits for attibutions and further copyright information.

  Follow gcmap on Facebook Follow gcmap on Twitter GCmap on LinkedIn

hCard Microformat

Geo Microformat